M I D A S
Marine Information and Data Acquisition System
Tripno 1809 of the Zeeleeuw from 2009-11-30 07:32:40 to 2009-11-30 12:04:37
Back to CruiseResearch ActivitiesStationsMapUnderway DataData graphs

EquipmentUnitsComment
TimeDGPSUTC
LatitudeDGPSDM.mWGS84
LongitudeDGPSDM.mWGS84
HeadingGyrodeg 
SOGDGPSknotsSpeed over ground
COGDGPSdegCourse over ground
DepthEcho soundermeters200 kHz
Missing or incorrect values are displayed as -999
Navigation data collected by the RV Zeeleeuw from 2009-11-30 07:25:11 to 2009-12-07 12:04:36
                                                                                    Next 1000 lines
Time Latitude Longitude Heading SOG COG Depth
2009-11-30 07:25:21 51°13.662 2°55.96 122.7 0.2 72 8.5
2009-11-30 07:25:25 51°13.662 2°55.96 120.6 0.1 207 8.4
2009-11-30 07:25:31 51°13.663 2°55.961 118.9 0.1 14 8.5
2009-11-30 07:25:36 51°13.663 2°55.961 118.4 0.1 218 8.5
2009-11-30 07:25:41 51°13.663 2°55.961 118.3 -999 99 8.5
2009-11-30 07:25:46 51°13.662 2°55.961 117.9 0.1 197 8.5
2009-11-30 07:25:51 51°13.662 2°55.961 117.6 -999 45 8.5
2009-11-30 07:25:56 51°13.662 2°55.961 117 0.1 165 8.5
2009-11-30 07:26:01 51°13.662 2°55.961 116.1 -999 187 8.5
2009-11-30 07:26:06 51°13.662 2°55.961 115.4 0.1 135 8.5
2009-11-30 07:26:11 51°13.662 2°55.961 114.8 0.1 158 8.5
2009-11-30 07:26:16 51°13.663 2°55.961 114.3 0.1 206 8.5
2009-11-30 07:26:21 51°13.663 2°55.961 113.7 0.1 236 8.5
2009-11-30 07:26:25 51°13.662 2°55.961 113 -999 191 8.5
2009-11-30 07:26:31 51°13.662 2°55.96 112.4 -999 227 8.5
2009-11-30 07:26:36 51°13.661 2°55.96 111.8 0.1 207 8.5
2009-11-30 07:26:41 51°13.661 2°55.96 111.1 -999 186 8.5
2009-11-30 07:26:46 51°13.661 2°55.96 110.4 0.1 222 8.5
2009-11-30 07:26:51 51°13.661 2°55.96 109.8 -999 171 8.5
2009-11-30 07:26:56 51°13.66 2°55.96 109.4 0.1 319 8.5
2009-11-30 07:27:01 51°13.661 2°55.959 109.3 0.6 302 8.5
2009-11-30 07:27:05 51°13.661 2°55.956 109.4 1.3 300 8.6
2009-11-30 07:27:11 51°13.663 2°55.952 109.4 1.8 296 8.6
2009-11-30 07:27:16 51°13.664 2°55.947 109 2.5 297 8.6
2009-11-30 07:27:21 51°13.666 2°55.942 108.4 3 295 -999
2009-11-30 07:27:27 51°13.668 2°55.934 108.2 3.5 292 -999
2009-11-30 07:27:33 51°13.671 2°55.925 107.7 3.7 291 -999
2009-11-30 07:27:39 51°13.673 2°55.915 106.8 4 289 -999
2009-11-30 07:27:45 51°13.675 2°55.904 106.1 4.3 288 -999
2009-11-30 07:27:49 51°13.677 2°55.896 105.4 4.3 287 -999
2009-11-30 07:27:55 51°13.679 2°55.886 105.1 4.2 287 -999
2009-11-30 07:28:00 51°13.681 2°55.877 104.9 4.1 286 -999
2009-11-30 07:28:05 51°13.682 2°55.868 104.9 4.1 286 -999
2009-11-30 07:28:09 51°13.683 2°55.862 104.9 4 285 -999
2009-11-30 07:28:15 51°13.685 2°55.852 104.6 3.9 286 -999
2009-11-30 07:28:20 51°13.686 2°55.844 103.9 3.8 285 -999
2009-11-30 07:28:25 51°13.688 2°55.836 103.2 3.7 286 -999
2009-11-30 07:28:30 51°13.689 2°55.828 102.5 3.6 285 -999
2009-11-30 07:28:35 51°13.691 2°55.82 101.6 3.5 285 -999
2009-11-30 07:28:40 51°13.692 2°55.813 100.5 3.5 285 -999
2009-11-30 07:28:45 51°13.693 2°55.806 99.1 3.3 284 -999
2009-11-30 07:28:49 51°13.694 2°55.8 98 3.2 283 -999
2009-11-30 07:28:55 51°13.695 2°55.792 96.3 3.1 282 -999
2009-11-30 07:29:00 51°13.696 2°55.786 94.9 3 281 -999
2009-11-30 07:29:04 51°13.696 2°55.781 92.9 2.9 280 13.7
2009-11-30 07:29:09 51°13.697 2°55.774 91.3 2.8 278 14.2
2009-11-30 07:29:14 51°13.697 2°55.768 89.4 2.7 278 14.3
2009-11-30 07:29:19 51°13.698 2°55.763 87.2 2.5 277 14.5
2009-11-30 07:29:24 51°13.698 2°55.758 85 2.2 278 14.7
2009-11-30 07:29:29 51°13.698 2°55.754 82.8 1.8 278 14.4
2009-11-30 07:29:34 51°13.699 2°55.751 80.2 1.3 284 14.3
2009-11-30 07:29:39 51°13.699 2°55.749 76.4 0.9 286 14.4
2009-11-30 07:29:44 51°13.699 2°55.748 71.9 0.8 297 14.3
2009-11-30 07:29:48 51°13.7 2°55.747 66.9 0.6 305 14.3
2009-11-30 07:29:53 51°13.7 2°55.746 62.6 0.6 319 14.3
2009-11-30 07:29:58 51°13.701 2°55.745 58.5 0.5 333 14.3
2009-11-30 07:30:03 51°13.701 2°55.745 54.7 0.6 340 14.3
2009-11-30 07:30:08 51°13.702 2°55.745 50.9 0.5 343 14.3
2009-11-30 07:30:13 51°13.703 2°55.744 47.3 0.5 334 14.3
2009-11-30 07:30:18 51°13.703 2°55.744 44.3 0.4 318 14.2
2009-11-30 07:30:23 51°13.703 2°55.743 41.9 0.5 288 14.1
2009-11-30 07:30:28 51°13.703 2°55.742 39.4 0.5 270 14.1
2009-11-30 07:30:33 51°13.703 2°55.74 37 0.7 254 14.1
2009-11-30 07:30:37 51°13.703 2°55.739 34.5 0.8 243 14.1
2009-11-30 07:30:43 51°13.702 2°55.737 32.2 0.9 232 14.2
2009-11-30 07:30:47 51°13.701 2°55.735 29.8 1.1 229 14.2
2009-11-30 07:30:52 51°13.7 2°55.734 27.5 1.2 221 14.2
2009-11-30 07:30:57 51°13.698 2°55.732 25.3 1.2 217 14.3
2009-11-30 07:31:02 51°13.697 2°55.731 23.3 1.1 217 14.4
2009-11-30 07:31:07 51°13.696 2°55.729 21.9 1 222 4.7
2009-11-30 07:31:12 51°13.695 2°55.728 20.9 0.5 237 4.9
2009-11-30 07:31:17 51°13.696 2°55.728 19.9 0.3 334 4.9
2009-11-30 07:31:22 51°13.697 2°55.728 16.7 0.9 355 4.9
2009-11-30 07:31:27 51°13.699 2°55.727 10.9 1.3 353 14.8
2009-11-30 07:31:32 51°13.701 2°55.726 4.1 1.5 354 15.2
2009-11-30 07:31:37 51°13.703 2°55.726 357.6 1.7 352 14.5
2009-11-30 07:31:41 51°13.705 2°55.725 351.1 2.1 344 13.8
2009-11-30 07:31:47 51°13.709 2°55.723 345.6 2.6 342 13.5
2009-11-30 07:31:52 51°13.714 2°55.72 341.6 3.3 338 13.4
2009-11-30 07:31:56 51°13.718 2°55.718 338.7 3.9 337 13
2009-11-30 07:32:01 51°13.723 2°55.714 336.9 4.4 336 13.1
2009-11-30 07:32:06 51°13.729 2°55.71 336 4.8 335 12.8
2009-11-30 07:32:11 51°13.735 2°55.705 335.4 5.2 334 12.8
2009-11-30 07:32:16 51°13.742 2°55.7 334.7 5.6 333 13
2009-11-30 07:32:21 51°13.749 2°55.694 334.1 5.8 332 13
2009-11-30 07:32:25 51°13.755 2°55.689 334.1 6.1 333 12.9
2009-11-30 07:32:31 51°13.765 2°55.681 334.2 6.3 332 12.6
2009-11-30 07:32:36 51°13.773 2°55.675 334.3 6.5 333 12.6
2009-11-30 07:32:41 51°13.781 2°55.668 334.4 6.6 333 12.7
2009-11-30 07:32:46 51°13.79 2°55.661 334.8 6.8 334 12.6
2009-11-30 07:32:51 51°13.799 2°55.655 335.5 6.9 334 12.6
2009-11-30 07:32:56 51°13.807 2°55.647 335.4 7.1 334 12.5
2009-11-30 07:33:01 51°13.816 2°55.641 334.9 7.2 335 12.5
2009-11-30 07:33:06 51°13.826 2°55.633 335 7.3 335 12.4
2009-11-30 07:33:11 51°13.835 2°55.626 335.4 7.4 335 12.1
2009-11-30 07:33:16 51°13.844 2°55.619 335.5 7.4 335 12.2
2009-11-30 07:33:21 51°13.854 2°55.612 335.5 7.5 335 12
2009-11-30 07:33:26 51°13.863 2°55.605 335.4 7.6 334 12.3
2009-11-30 07:33:31 51°13.873 2°55.598 335.3 7.7 336 12
2009-11-30 07:33:36 51°13.883 2°55.589 335.3 7.7 334 12.1
2009-11-30 07:33:41 51°13.892 2°55.583 335.4 7.8 336 12
2009-11-30 07:33:46 51°13.902 2°55.575 335.6 7.8 335 12
2009-11-30 07:33:51 51°13.912 2°55.568 335.6 8 335 12.1
2009-11-30 07:33:56 51°13.922 2°55.56 335.8 8.2 335 12.1
2009-11-30 07:34:01 51°13.932 2°55.552 335.5 8.4 335 12
2009-11-30 07:34:06 51°13.943 2°55.543 335.2 8.5 335 11.9
2009-11-30 07:34:11 51°13.954 2°55.535 335 8.6 335 12
2009-11-30 07:34:16 51°13.965 2°55.527 335.1 8.7 335 12
2009-11-30 07:34:21 51°13.976 2°55.519 335 8.7 335 11.9
2009-11-30 07:34:25 51°13.985 2°55.512 334.3 8.8 334 11.8
2009-11-30 07:34:31 51°13.998 2°55.502 334 8.8 335 11.6
2009-11-30 07:34:36 51°14.009 2°55.494 335.2 8.8 335 11.6
2009-11-30 07:34:41 51°14.02 2°55.485 335.2 8.9 335 11.4
2009-11-30 07:34:45 51°14.029 2°55.479 335.5 8.9 336 11.3
2009-11-30 07:34:51 51°14.043 2°55.469 336 8.9 336 11.4
2009-11-30 07:34:56 51°14.054 2°55.461 335.9 8.9 335 11.4
2009-11-30 07:35:01 51°14.066 2°55.453 335.9 8.9 336 11.3
2009-11-30 07:35:05 51°14.075 2°55.446 335.8 9 335 11.4
2009-11-30 07:35:11 51°14.088 2°55.436 335.2 9.1 334 11.3
2009-11-30 07:35:16 51°14.1 2°55.427 334.9 9.1 335 11.3
2009-11-30 07:35:21 51°14.111 2°55.418 335.7 9.1 335 11.6
2009-11-30 07:35:26 51°14.123 2°55.41 335.3 9.1 333 11.4
2009-11-30 07:35:31 51°14.134 2°55.401 334.7 9.2 334 11.7
2009-11-30 07:35:36 51°14.146 2°55.392 334.4 9.2 332 11.7
2009-11-30 07:35:41 51°14.157 2°55.382 333.2 9.2 332 11.7
2009-11-30 07:35:46 51°14.168 2°55.373 332.8 9.2 332 11.7
2009-11-30 07:35:51 51°14.179 2°55.363 331.9 9.1 329 11.8
2009-11-30 07:35:56 51°14.19 2°55.352 330 9.1 327 11.8
2009-11-30 07:36:01 51°14.2 2°55.34 327.6 9.1 325 11.8
2009-11-30 07:36:05 51°14.208 2°55.33 325.2 9.1 323 11.8
2009-11-30 07:36:11 51°14.22 2°55.316 324.2 9.1 322 11.8
2009-11-30 07:36:16 51°14.23 2°55.303 322.3 9.2 320 11.6
2009-11-30 07:36:21 51°14.239 2°55.289 319.9 9.2 318 11.6
2009-11-30 07:36:25 51°14.247 2°55.277 317.4 9.2 315 11.7
2009-11-30 07:36:31 51°14.257 2°55.26 315.4 9.2 315 11.8
2009-11-30 07:36:36 51°14.266 2°55.245 312.9 9.3 311 11.7
2009-11-30 07:36:41 51°14.274 2°55.229 311.3 9.3 311 11.6
2009-11-30 07:36:46 51°14.283 2°55.214 311.3 9.4 312 11.5
2009-11-30 07:36:51 51°14.291 2°55.197 310.7 9.4 309 11.7
2009-11-30 07:36:56 51°14.299 2°55.181 309.1 9.5 309 11.6
2009-11-30 07:37:01 51°14.308 2°55.165 309 9.5 309 11.5
2009-11-30 07:37:05 51°14.314 2°55.151 308.6 9.6 308 11.7
2009-11-30 07:37:11 51°14.324 2°55.131 307.9 9.6 308 11.8
2009-11-30 07:37:16 51°14.332 2°55.115 307.9 9.7 309 11.9
2009-11-30 07:37:21 51°14.341 2°55.098 308.6 9.7 309 12
2009-11-30 07:37:25 51°14.348 2°55.085 309.4 9.8 311 11.8
2009-11-30 07:37:31 51°14.359 2°55.066 310.4 9.8 313 11.8
2009-11-30 07:37:36 51°14.369 2°55.05 312 9.8 316 11.8
2009-11-30 07:37:41 51°14.379 2°55.036 314.5 9.9 318 11.5
2009-11-30 07:37:45 51°14.387 2°55.024 315.7 9.9 319 11.3
2009-11-30 07:37:51 51°14.4 2°55.008 317.3 9.9 322 11.2
2009-11-30 07:37:56 51°14.411 2°54.995 319.7 9.9 324 11.2
2009-11-30 07:38:01 51°14.422 2°54.983 322.6 9.9 326 11.2
2009-11-30 07:38:06 51°14.434 2°54.971 325.3 10 328 11.4
2009-11-30 07:38:11 51°14.445 2°54.959 326.9 10 328 11.5
2009-11-30 07:38:16 51°14.458 2°54.948 328 10.1 330 11.7
2009-11-30 07:38:21 51°14.47 2°54.937 330.3 10.1 332 11.5
2009-11-30 07:38:26 51°14.483 2°54.927 332.4 10.2 332 11.5
2009-11-30 07:38:31 51°14.496 2°54.917 333.2 10.4 334 11.4
2009-11-30 07:38:36 51°14.509 2°54.907 334.4 10.4 336 11.4
2009-11-30 07:38:41 51°14.522 2°54.898 336.6 10.5 338 11.2
2009-11-30 07:38:45 51°14.533 2°54.892 339.5 10.7 341 11.3
2009-11-30 07:38:51 51°14.55 2°54.884 342.3 10.7 344 11
2009-11-30 07:38:56 51°14.565 2°54.878 345.1 10.7 346 11.2
2009-11-30 07:39:01 51°14.579 2°54.872 347 10.8 346 11
2009-11-30 07:39:06 51°14.594 2°54.867 347 10.9 346 10.9
2009-11-30 07:39:11 51°14.609 2°54.861 346.5 10.9 346 10.9
2009-11-30 07:39:16 51°14.624 2°54.856 348.1 11 350 10.9
2009-11-30 07:39:21 51°14.639 2°54.851 349.7 11 348 10.9
2009-11-30 07:39:25 51°14.651 2°54.846 348.9 11.1 346 11
2009-11-30 07:39:31 51°14.669 2°54.84 348.4 11.2 348 11.2
2009-11-30 07:39:36 51°14.684 2°54.834 348.5 11.1 347 10.8
2009-11-30 07:39:41 51°14.699 2°54.829 348.7 11.2 348 10.8
2009-11-30 07:39:45 51°14.711 2°54.825 349.1 11.2 348 10.7
2009-11-30 07:39:51 51°14.73 2°54.818 349.1 11.2 348 11.1
2009-11-30 07:39:56 51°14.745 2°54.813 349.3 11.2 348 11
2009-11-30 07:40:01 51°14.761 2°54.808 349.3 11.2 348 10.9
2009-11-30 07:40:06 51°14.776 2°54.803 349.3 11.2 348 10.7
2009-11-30 07:40:11 51°14.791 2°54.798 349.2 11.3 348 11
2009-11-30 07:40:16 51°14.807 2°54.793 349.2 11.2 348 10.7
2009-11-30 07:40:21 51°14.822 2°54.788 349.2 11.3 348 10.9
2009-11-30 07:40:26 51°14.838 2°54.783 349.3 11.3 348 10.8
2009-11-30 07:40:31 51°14.853 2°54.778 349.2 11.4 348 10.9
2009-11-30 07:40:36 51°14.868 2°54.772 348.9 11.4 347 10.8
2009-11-30 07:40:41 51°14.884 2°54.767 348.8 11.4 349 10.7
2009-11-30 07:40:45 51°14.896 2°54.763 349 11.3 347 10.6
2009-11-30 07:40:51 51°14.914 2°54.757 349.1 11.3 348 10.4
2009-11-30 07:40:56 51°14.929 2°54.752 349.2 11.3 348 10.5
2009-11-30 07:41:01 51°14.945 2°54.747 349 11.3 348 10.5
2009-11-30 07:41:06 51°14.96 2°54.742 349.2 11.4 348 10.5
2009-11-30 07:41:11 51°14.976 2°54.736 349.2 11.4 348 10.5
2009-11-30 07:41:16 51°14.991 2°54.731 349.2 11.4 348 10.4
2009-11-30 07:41:21 51°15.006 2°54.726 349.2 11.4 348 10.1
2009-11-30 07:41:26 51°15.022 2°54.72 349 11.4 348 10.2
2009-11-30 07:41:31 51°15.037 2°54.716 349 11.4 348 10
2009-11-30 07:41:36 51°15.052 2°54.71 348.8 11.3 348 9.8
2009-11-30 07:41:41 51°15.068 2°54.705 348.8 11.4 348 9.7
2009-11-30 07:41:46 51°15.083 2°54.7 349.1 11.3 348 9.5
2009-11-30 07:41:51 51°15.098 2°54.695 348.8 11.3 349 9.8
2009-11-30 07:41:56 51°15.113 2°54.689 349.2 11.3 348 9.4
2009-11-30 07:42:01 51°15.129 2°54.684 349.1 11.2 348 9.5
2009-11-30 07:42:05 51°15.141 2°54.68 348.8 11.3 347 9.5
2009-11-30 07:42:11 51°15.159 2°54.674 348.5 11.3 348 9.6
2009-11-30 07:42:16 51°15.174 2°54.669 349.2 11.2 348 9.5
2009-11-30 07:42:21 51°15.189 2°54.663 348.6 11.2 347 9.6
2009-11-30 07:42:26 51°15.205 2°54.658 349 11.2 348 10
2009-11-30 07:42:32 51°15.223 2°54.652 348.8 11.3 348 9.8
2009-11-30 07:42:37 51°15.239 2°54.647 349 11.3 348 9.7
2009-11-30 07:42:41 51°15.251 2°54.643 348.7 11.3 348 9.8
2009-11-30 07:42:46 51°15.266 2°54.638 348.3 11.3 348 9.9
2009-11-30 07:42:51 51°15.282 2°54.632 348.3 11.3 348 10.1
2009-11-30 07:42:56 51°15.297 2°54.627 348.6 11.3 347 10.1
2009-11-30 07:43:01 51°15.312 2°54.621 348.5 11.3 347 10
2009-11-30 07:43:06 51°15.327 2°54.617 348.5 11.3 348 10.2
2009-11-30 07:43:11 51°15.343 2°54.611 348.7 11.3 347 10.4
2009-11-30 07:43:16 51°15.358 2°54.607 348.6 11.3 349 10.5
2009-11-30 07:43:21 51°15.374 2°54.601 348.8 11.3 347 10.5
2009-11-30 07:43:26 51°15.389 2°54.596 348.5 11.4 348 10.6
2009-11-30 07:43:31 51°15.404 2°54.59 347.8 11.3 346 10.9
2009-11-30 07:43:36 51°15.419 2°54.585 348 11.3 348 10.6
2009-11-30 07:43:41 51°15.435 2°54.578 348 11.3 345 10.5
2009-11-30 07:43:46 51°15.45 2°54.573 348.2 11.3 348 10.5
2009-11-30 07:43:51 51°15.465 2°54.567 348.1 11.3 346 10.4
2009-11-30 07:43:56 51°15.48 2°54.561 348 11.3 347 10.5
2009-11-30 07:44:01 51°15.495 2°54.556 348.5 11.3 347 10.8
2009-11-30 07:44:06 51°15.51 2°54.55 348.3 11.3 348 10.8
2009-11-30 07:44:10 51°15.523 2°54.545 347.8 11.4 346 10.8
2009-11-30 07:44:16 51°15.541 2°54.539 348.5 11.3 348 10.8
2009-11-30 07:44:22 51°15.559 2°54.532 348.5 11.3 346 11.2
2009-11-30 07:44:26 51°15.571 2°54.527 348.3 11.3 347 11
2009-11-30 07:44:31 51°15.587 2°54.521 348.5 11.3 346 10.9
2009-11-30 07:44:36 51°15.602 2°54.516 348 11.3 347 11
2009-11-30 07:44:41 51°15.617 2°54.51 348 11.3 346 11.1
2009-11-30 07:44:46 51°15.632 2°54.504 347.9 11.3 347 11
2009-11-30 07:44:52 51°15.651 2°54.497 348.5 11.3 347 11.5
2009-11-30 07:44:56 51°15.663 2°54.492 348.3 11.3 347 11.5
2009-11-30 07:45:01 51°15.678 2°54.487 348.6 11.3 347 11.2
2009-11-30 07:45:06 51°15.693 2°54.481 348.2 11.4 347 11.5
2009-11-30 07:45:11 51°15.709 2°54.475 348.5 11.4 347 11.6
2009-11-30 07:45:16 51°15.724 2°54.47 348.4 11.4 347 11.6
2009-11-30 07:45:21 51°15.739 2°54.464 348.4 11.3 347 11.7
2009-11-30 07:45:26 51°15.755 2°54.458 348.3 11.4 346 11.7
2009-11-30 07:45:31 51°15.77 2°54.452 348.4 11.4 347 11.8
2009-11-30 07:45:36 51°15.785 2°54.446 348.6 11.3 346 11.7
2009-11-30 07:45:41 51°15.8 2°54.441 348.2 11.3 346 11.7
2009-11-30 07:45:46 51°15.816 2°54.435 348.3 11.3 346 11.6
2009-11-30 07:45:51 51°15.831 2°54.429 348.2 11.2 346 11.7
2009-11-30 07:45:56 51°15.846 2°54.423 348.5 11.2 347 12
2009-11-30 07:46:02 51°15.864 2°54.417 348.5 11.2 346 12.2
2009-11-30 07:46:06 51°15.876 2°54.413 348.8 11.1 348 12.3
2009-11-30 07:46:11 51°15.891 2°54.406 348.1 11.2 346 12.4
2009-11-30 07:46:16 51°15.906 2°54.401 348 11.2 347 12.2
2009-11-30 07:46:22 51°15.924 2°54.394 348.3 11.2 347 11.9
2009-11-30 07:46:26 51°15.936 2°54.39 348.5 11.2 347 12.2
2009-11-30 07:46:31 51°15.951 2°54.384 348 11 347 12.5
2009-11-30 07:46:35 51°15.963 2°54.38 348.2 10.8 346 12.1
2009-11-30 07:46:42 51°15.983 2°54.372 347.9 10.7 346 12.4
2009-11-30 07:46:46 51°15.994 2°54.368 348.2 10.5 347 12.6
2009-11-30 07:46:52 51°16.01 2°54.362 348 10.1 346 12.5
2009-11-30 07:46:56 51°16.02 2°54.358 348.3 9.4 347 12.4
2009-11-30 07:47:01 51°16.032 2°54.354 348.5 8.6 346 12.5
2009-11-30 07:47:06 51°16.043 2°54.35 348.4 8 347 12.5
2009-11-30 07:47:12 51°16.054 2°54.346 348.7 7.4 348 12.7
2009-11-30 07:47:16 51°16.062 2°54.343 349.2 7 348 12.8
2009-11-30 07:47:21 51°16.071 2°54.341 350 6.6 350 12.6
2009-11-30 07:47:26 51°16.079 2°54.338 350.7 6.4 349 12.5
2009-11-30 07:47:32 51°16.089 2°54.336 351.3 5.9 351 12.7
2009-11-30 07:47:37 51°16.097 2°54.334 352.1 5.7 350 12.8
2009-11-30 07:47:42 51°16.104 2°54.332 352.7 5.5 351 12.6
2009-11-30 07:47:46 51°16.11 2°54.331 353.3 5.3 352 12.6
2009-11-30 07:47:52 51°16.118 2°54.329 353.5 5.3 352 12.8
2009-11-30 07:47:57 51°16.125 2°54.328 353.6 5 352 12.8
2009-11-30 07:48:02 51°16.132 2°54.326 353.5 5 353 13
2009-11-30 07:48:06 51°16.137 2°54.324 353.2 4.9 351 12.7
2009-11-30 07:48:11 51°16.144 2°54.323 352.9 5 352 12.8
2009-11-30 07:48:16 51°16.15 2°54.321 352.7 4.9 350 12.8
2009-11-30 07:48:21 51°16.157 2°54.32 352.3 4.9 353 12.7
2009-11-30 07:48:26 51°16.165 2°54.317 351.9 5 350 12.7
2009-11-30 07:48:32 51°16.173 2°54.315 351.9 5 352 12.9
2009-11-30 07:48:36 51°16.179 2°54.314 351.4 5 349 12.8
2009-11-30 07:48:42 51°16.187 2°54.311 351 5 349 12.8
2009-11-30 07:48:46 51°16.192 2°54.309 350.5 5 349 12.7
2009-11-30 07:48:52 51°16.2 2°54.307 350.1 4.9 349 12.8
2009-11-30 07:48:56 51°16.206 2°54.306 349.6 4.9 349 12.9
2009-11-30 07:49:01 51°16.213 2°54.303 349.2 5 347 12.7
2009-11-30 07:49:06 51°16.219 2°54.301 348.5 4.8 348 12.6
2009-11-30 07:49:12 51°16.227 2°54.298 348.2 4.5 347 12.9
2009-11-30 07:49:16 51°16.231 2°54.297 347.7 4.3 347 12.8
2009-11-30 07:49:21 51°16.237 2°54.294 346.7 4.1 346 12.9
2009-11-30 07:49:26 51°16.242 2°54.292 345.9 3.8 346 12.8
2009-11-30 07:49:32 51°16.247 2°54.29 344.8 3.4 342 12.7
2009-11-30 07:49:37 51°16.25 2°54.288 344.2 3 345 12.5
2009-11-30 07:49:41 51°16.253 2°54.287 343.5 2.4 344 13
2009-11-30 07:49:46 51°16.255 2°54.286 343.3 1.9 342 12.9
2009-11-30 07:49:52 51°16.258 2°54.285 343.2 2 345 12.9
2009-11-30 07:49:56 51°16.26 2°54.283 342.8 1.9 340 12.6
2009-11-30 07:50:02 51°16.263 2°54.282 342.7 1.8 343 12.6
2009-11-30 07:50:06 51°16.265 2°54.281 342.2 1.7 345 12.8
2009-11-30 07:50:12 51°16.266 2°54.281 342 1.2 342 12.9
2009-11-30 07:50:17 51°16.268 2°54.28 341.8 1.2 348 13
2009-11-30 07:50:21 51°16.269 2°54.279 341.9 1.1 338 12.7
2009-11-30 07:50:26 51°16.27 2°54.279 341.4 1.1 349 12.8
2009-11-30 07:50:31 51°16.272 2°54.278 340.7 1 337 12.8
2009-11-30 07:50:36 51°16.274 2°54.277 339.3 1.1 345 12.8
2009-11-30 07:50:41 51°16.275 2°54.276 338.7 1.1 337 12.8
2009-11-30 07:50:46 51°16.276 2°54.276 337.3 1.1 346 12.6
2009-11-30 07:50:51 51°16.278 2°54.275 336.1 1.1 342 12.8
2009-11-30 07:50:56 51°16.279 2°54.274 334.6 1.1 345 12.9
2009-11-30 07:51:01 51°16.281 2°54.273 333 1 337 12.8
2009-11-30 07:51:06 51°16.282 2°54.272 331.6 1 338 12.8
2009-11-30 07:51:11 51°16.283 2°54.271 330.8 0.9 337 12.7
2009-11-30 07:51:17 51°16.284 2°54.27 329.7 1 336 12.8
2009-11-30 07:51:21 51°16.285 2°54.27 328.6 0.9 335 12.9
2009-11-30 07:51:26 51°16.287 2°54.269 327.4 1 333 12.7
2009-11-30 07:51:31 51°16.288 2°54.268 326.4 0.9 335 12.9
2009-11-30 07:51:36 51°16.289 2°54.267 325.7 0.9 330 12.6
2009-11-30 07:51:41 51°16.29 2°54.266 324.7 0.9 334 12.9
2009-11-30 07:51:46 51°16.291 2°54.265 323.9 0.9 328 12.6
2009-11-30 07:51:51 51°16.292 2°54.264 323.2 0.9 332 12.8
2009-11-30 07:51:56 51°16.293 2°54.263 322.6 0.8 334 12.9
2009-11-30 07:52:01 51°16.294 2°54.262 321.9 0.9 333 12.8
2009-11-30 07:52:06 51°16.295 2°54.261 321.4 0.9 328 12.8
2009-11-30 07:52:11 51°16.296 2°54.26 320.8 0.8 334 12.6
2009-11-30 07:52:17 51°16.297 2°54.259 320.2 0.8 325 12.8
2009-11-30 07:52:21 51°16.298 2°54.259 319.8 0.8 336 12.7
2009-11-30 07:52:26 51°16.299 2°54.258 319 0.8 324 12.8
2009-11-30 07:52:31 51°16.3 2°54.257 318.8 0.7 338 12.8
2009-11-30 07:52:37 51°16.301 2°54.256 318 0.8 323 12.9
2009-11-30 07:52:42 51°16.302 2°54.255 317.4 0.8 328 12.9
2009-11-30 07:52:46 51°16.303 2°54.254 316.9 0.7 324 12.9
2009-11-30 07:52:51 51°16.304 2°54.254 316.3 0.7 330 13
2009-11-30 07:52:57 51°16.305 2°54.252 315.4 0.7 322 12.8
2009-11-30 07:53:01 51°16.305 2°54.252 314.7 0.8 335 13.1
2009-11-30 07:53:06 51°16.306 2°54.251 314 0.7 320 12.9
2009-11-30 07:53:11 51°16.307 2°54.25 313.3 0.6 330 12.8
2009-11-30 07:53:17 51°16.308 2°54.249 312.9 0.7 327 13
2009-11-30 07:53:21 51°16.308 2°54.248 312 0.7 323 12.7
2009-11-30 07:53:26 51°16.309 2°54.247 311.1 0.7 327 12.9
2009-11-30 07:53:31 51°16.31 2°54.247 310.5 0.7 329 12.9
2009-11-30 07:53:36 51°16.311 2°54.246 309.5 0.6 322 13
2009-11-30 07:53:41 51°16.311 2°54.245 308.7 0.6 329 13
2009-11-30 07:53:46 51°16.312 2°54.244 308.3 0.6 327 13
2009-11-30 07:53:51 51°16.313 2°54.244 307.7 0.5 326 13
2009-11-30 07:53:56 51°16.313 2°54.243 307 0.7 332 13
2009-11-30 07:54:01 51°16.314 2°54.242 306.6 0.5 317 13
2009-11-30 07:54:06 51°16.315 2°54.242 305.9 0.6 338 12.8
2009-11-30 07:54:11 51°16.315 2°54.241 305.6 0.6 315 13
2009-11-30 07:54:16 51°16.316 2°54.24 305 0.6 340 12.9
2009-11-30 07:54:21 51°16.316 2°54.239 304.6 0.5 311 13
2009-11-30 07:54:26 51°16.317 2°54.239 304.1 0.5 341 12.9
2009-11-30 07:54:31 51°16.317 2°54.238 303.5 0.5 320 12.8
2009-11-30 07:54:36 51°16.318 2°54.238 302.7 0.5 330 13
2009-11-30 07:54:41 51°16.319 2°54.237 302.1 0.5 332 13
2009-11-30 07:54:46 51°16.319 2°54.237 301.2 0.4 321 13
2009-11-30 07:54:51 51°16.32 2°54.236 300.6 0.5 325 13
2009-11-30 07:54:57 51°16.321 2°54.236 300.1 0.5 337 12.8
2009-11-30 07:55:01 51°16.322 2°54.235 299.2 0.4 312 13
2009-11-30 07:55:06 51°16.322 2°54.234 298.6 0.5 340 12.9
2009-11-30 07:55:11 51°16.323 2°54.234 297.9 0.5 329 12.9
2009-11-30 07:55:16 51°16.323 2°54.234 297.1 0.4 329 13
2009-11-30 07:55:21 51°16.323 2°54.233 296.3 0.5 330 13
2009-11-30 07:55:26 51°16.324 2°54.233 296 0.4 330 12.9
2009-11-30 07:55:31 51°16.325 2°54.232 295 0.4 330 12.9
2009-11-30 07:55:36 51°16.325 2°54.232 294.5 0.3 320 12.9
2009-11-30 07:55:41 51°16.326 2°54.231 293.8 0.5 340 13
2009-11-30 07:55:46 51°16.326 2°54.231 293.2 0.3 332 12.8
2009-11-30 07:55:51 51°16.326 2°54.231 292.1 0.4 329 13.2
2009-11-30 07:55:56 51°16.327 2°54.23 291.8 0.3 342 12.9
2009-11-30 07:56:01 51°16.328 2°54.23 291 0.4 321 13.1
2009-11-30 07:56:07 51°16.328 2°54.229 290.4 0.4 341 12.9
2009-11-30 07:56:11 51°16.329 2°54.229 289.5 0.4 331 13
2009-11-30 07:56:17 51°16.329 2°54.229 288.9 0.2 333 13.1
2009-11-30 07:56:21 51°16.329 2°54.229 288.1 0.4 344 13
2009-11-30 07:56:26 51°16.33 2°54.228 287.6 0.2 310 12.9
2009-11-30 07:56:31 51°16.33 2°54.228 286.8 0.4 344 12.9
2009-11-30 07:56:37 51°16.331 2°54.228 286.2 0.3 317 13.1
2009-11-30 07:56:41 51°16.331 2°54.228 285.6 0.5 349 12.8
2009-11-30 07:56:46 51°16.331 2°54.227 284.8 0.2 291 13.1
2009-11-30 07:56:51 51°16.332 2°54.227 284.2 0.5 359 12.9
2009-11-30 07:56:57 51°16.332 2°54.227 283.5 0.2 287 13
2009-11-30 07:57:01 51°16.332 2°54.226 282.6 0.4 342 13
2009-11-30 07:57:06 51°16.333 2°54.226 282.3 0.3 330 13
2009-11-30 07:57:11 51°16.333 2°54.226 281.6 0.3 344 13
2009-11-30 07:57:16 51°16.334 2°54.226 280.6 0.3 340 13.1
2009-11-30 07:57:22 51°16.334 2°54.225 280.3 0.2 337 12.9
2009-11-30 07:57:25 51°16.335 2°54.225 279.1 0.4 335 13.1
2009-11-30 07:57:31 51°16.335 2°54.225 279.1 0.2 349 12.9
2009-11-30 07:57:36 51°16.335 2°54.225 278.1 0.4 346 13
2009-11-30 07:57:42 51°16.335 2°54.225 277.4 0.2 345 13
2009-11-30 07:57:46 51°16.336 2°54.225 276.6 0.3 -999 13.1
2009-11-30 07:57:51 51°16.336 2°54.225 276 0.2 353 12.9
2009-11-30 07:57:56 51°16.336 2°54.225 275.3 0.3 -999 13.1
2009-11-30 07:58:01 51°16.337 2°54.225 274.5 0.3 345 13
2009-11-30 07:58:06 51°16.337 2°54.225 273.9 0.3 359 13
2009-11-30 07:58:11 51°16.337 2°54.224 272.9 0.2 346 13
2009-11-30 07:58:16 51°16.338 2°54.224 272.2 0.4 351 12.9
2009-11-30 07:58:21 51°16.338 2°54.224 271.4 0.2 353 12.9
2009-11-30 07:58:26 51°16.338 2°54.224 270.1 0.4 2 13.1
2009-11-30 07:58:32 51°16.339 2°54.224 269.8 0.3 359 13.2
2009-11-30 07:58:36 51°16.339 2°54.224 269 0.4 358 13
2009-11-30 07:58:41 51°16.339 2°54.224 268.6 0.2 7 13
2009-11-30 07:58:46 51°16.34 2°54.224 267.8 0.5 356 12.9
2009-11-30 07:58:51 51°16.34 2°54.225 267.4 0.2 3 13.1
2009-11-30 07:58:56 51°16.341 2°54.225 267.1 0.5 358 13
2009-11-30 07:59:01 51°16.341 2°54.225 266.7 0.3 359 13.1
2009-11-30 07:59:06 51°16.342 2°54.225 266.7 0.4 5 13
2009-11-30 07:59:11 51°16.342 2°54.225 266.1 0.2 348 13
2009-11-30 07:59:17 51°16.343 2°54.225 266 0.3 4 13.2
2009-11-30 07:59:21 51°16.343 2°54.225 265.7 0.4 354 13
2009-11-30 07:59:26 51°16.343 2°54.225 265.4 0.3 15 13
2009-11-30 07:59:31 51°16.344 2°54.225 265 0.4 359 13.1
2009-11-30 07:59:36 51°16.344 2°54.225 265 0.3 12 13.1
2009-11-30 07:59:42 51°16.345 2°54.225 264.5 0.5 1 13.2
2009-11-30 07:59:46 51°16.345 2°54.225 264.6 0.3 18 13.1
2009-11-30 07:59:51 51°16.346 2°54.225 264.6 0.6 3 13.1
2009-11-30 07:59:56 51°16.346 2°54.226 264.6 0.2 19 13.1
2009-11-30 08:00:02 51°16.347 2°54.226 264.8 0.5 5 13
2009-11-30 08:00:05 51°16.347 2°54.226 265 0.2 22 13
2009-11-30 08:00:11 51°16.347 2°54.226 265 0.4 13 13.1
2009-11-30 08:00:15 51°16.348 2°54.226 265.1 0.3 20 13.1
2009-11-30 08:00:21 51°16.349 2°54.226 265 0.4 7 13
2009-11-30 08:00:26 51°16.349 2°54.227 265.1 0.2 23 13.1
2009-11-30 08:00:31 51°16.35 2°54.227 265.1 0.4 11 12.8
2009-11-30 08:00:36 51°16.35 2°54.227 265.2 0.3 15 13.1
2009-11-30 08:00:41 51°16.35 2°54.227 265.2 0.4 15 12.9
2009-11-30 08:00:46 51°16.351 2°54.227 265 0.5 6 13
2009-11-30 08:00:52 51°16.352 2°54.228 265.3 0.3 25 13.2
2009-11-30 08:00:57 51°16.352 2°54.228 265 0.5 2 12.8
2009-11-30 08:01:01 51°16.352 2°54.228 265.1 0.2 14 13.3
2009-11-30 08:01:06 51°16.353 2°54.227 265.3 0.6 336 12.9
2009-11-30 08:01:11 51°16.353 2°54.226 265.1 0.4 276 13.2
2009-11-30 08:01:16 51°16.354 2°54.224 265 0.9 299 13.2
2009-11-30 08:01:21 51°16.354 2°54.221 264.9 1.4 270 13
2009-11-30 08:01:26 51°16.354 2°54.216 264.5 1.9 272 13
2009-11-30 08:01:31 51°16.354 2°54.211 263.6 2.6 265 13
2009-11-30 08:01:37 51°16.353 2°54.203 262.1 3 268 13
2009-11-30 08:01:41 51°16.353 2°54.196 261.4 3.5 263 13.2
2009-11-30 08:01:46 51°16.353 2°54.188 263.3 3.9 270 13.1
2009-11-30 08:01:51 51°16.353 2°54.178 266.5 4.3 270 12.9
2009-11-30 08:01:56 51°16.353 2°54.168 269.5 4.7 274 13.1
2009-11-30 08:02:01 51°16.355 2°54.157 275.9 5 281 13.3
2009-11-30 08:02:06 51°16.357 2°54.146 281.6 5.1 285 13.4
2009-11-30 08:02:10 51°16.359 2°54.137 288.2 5.3 294 13
2009-11-30 08:02:16 51°16.364 2°54.124 294.6 5.5 299 13.1
2009-11-30 08:02:22 51°16.369 2°54.113 301.1 5.6 307 13.4
2009-11-30 08:02:26 51°16.374 2°54.105 307.9 5.7 312 13.3
2009-11-30 08:02:31 51°16.38 2°54.097 313.5 5.8 319 13.1
2009-11-30 08:02:36 51°16.387 2°54.089 319.8 6 322 13.1
2009-11-30 08:02:41 51°16.394 2°54.081 323.7 6.1 325 13.4
2009-11-30 08:02:46 51°16.401 2°54.073 324.8 6.4 324 13.2
2009-11-30 08:02:51 51°16.408 2°54.064 324 6.5 324 13.3
2009-11-30 08:02:56 51°16.416 2°54.055 323.9 6.8 324 13.4
2009-11-30 08:03:01 51°16.423 2°54.045 323.1 7 321 13.3
2009-11-30 08:03:06 51°16.431 2°54.035 320.9 7.3 319 13.4
2009-11-30 08:03:11 51°16.439 2°54.023 318.8 7.6 318 13.1
2009-11-30 08:03:16 51°16.447 2°54.011 316.7 8 316 13.2
2009-11-30 08:03:21 51°16.455 2°53.997 315.3 8.5 314 13.3
2009-11-30 08:03:25 51°16.461 2°53.985 313.4 8.9 312 13.2
2009-11-30 08:03:32 51°16.473 2°53.963 312.2 9.4 311 13.5
2009-11-30 08:03:37 51°16.482 2°53.946 310 9.8 307 13.4
2009-11-30 08:03:41 51°16.488 2°53.932 308.9 10 308 13.2
2009-11-30 08:03:46 51°16.497 2°53.914 307.7 10.3 306 13.1
2009-11-30 08:03:51 51°16.505 2°53.894 306.3 10.5 305 13.2
2009-11-30 08:03:56 51°16.514 2°53.876 305.6 10.6 306 13.2
2009-11-30 08:04:01 51°16.522 2°53.856 304.8 10.7 303 13.4
2009-11-30 08:04:06 51°16.53 2°53.836 304 10.9 304 13.2
2009-11-30 08:04:11 51°16.539 2°53.816 303.6 10.9 303 13.3
2009-11-30 08:04:16 51°16.547 2°53.796 303.3 10.9 303 13.6
2009-11-30 08:04:21 51°16.556 2°53.776 304.2 11 305 13.4
2009-11-30 08:04:26 51°16.564 2°53.755 304.1 11 303 13.4
2009-11-30 08:04:31 51°16.573 2°53.736 304.5 11 305 13.4
2009-11-30 08:04:36 51°16.581 2°53.715 305.1 11 305 13.3
2009-11-30 08:04:41 51°16.591 2°53.696 305.4 11.1 306 13.3
2009-11-30 08:04:46 51°16.599 2°53.676 305.7 11.1 306 13.3
2009-11-30 08:04:50 51°16.607 2°53.66 305.9 11.1 306 13.2
2009-11-30 08:04:56 51°16.618 2°53.637 307.1 11.1 308 13.2
2009-11-30 08:05:01 51°16.627 2°53.617 307.5 11.1 307 13.2
2009-11-30 08:05:06 51°16.637 2°53.598 307.9 11.1 308 13.4
2009-11-30 08:05:11 51°16.647 2°53.579 308.6 11.1 309 13.2
2009-11-30 08:05:16 51°16.656 2°53.559 308.6 11.1 308 13.2
2009-11-30 08:05:21 51°16.666 2°53.541 308.9 11.1 310 13.2
2009-11-30 08:05:26 51°16.675 2°53.521 309.3 11.1 309 13
2009-11-30 08:05:31 51°16.685 2°53.502 309.3 11 309 13.1
2009-11-30 08:05:37 51°16.697 2°53.48 309.4 11.1 309 12.9
2009-11-30 08:05:41 51°16.704 2°53.465 309.6 11 310 13
2009-11-30 08:05:46 51°16.714 2°53.446 310 11 309 13
2009-11-30 08:05:51 51°16.724 2°53.427 309.8 11 310 13.4
2009-11-30 08:05:56 51°16.733 2°53.408 310.1 11 310 13.3
2009-11-30 08:06:01 51°16.743 2°53.39 310.3 11 310 13.1
2009-11-30 08:06:06 51°16.753 2°53.371 310.1 11 310 13.1
2009-11-30 08:06:11 51°16.763 2°53.352 309.9 11.1 309 13.1
2009-11-30 08:06:17 51°16.775 2°53.33 309.9 11.1 310 12.8
2009-11-30 08:06:21 51°16.783 2°53.314 310 11.1 309 12.9
2009-11-30 08:06:26 51°16.792 2°53.295 309.8 11.1 310 12.8
2009-11-30 08:06:31 51°16.802 2°53.277 310 11 310 12.7
2009-11-30 08:06:36 51°16.812 2°53.258 310 11 310 12.6
2009-11-30 08:06:41 51°16.821 2°53.239 310.2 11 310 12.3
2009-11-30 08:06:46 51°16.831 2°53.221 309.9 11 309 12.1
2009-11-30 08:06:51 51°16.841 2°53.202 310 10.9 309 12
2009-11-30 08:06:56 51°16.85 2°53.183 310.1 10.9 310 11.7
2009-11-30 08:07:02 51°16.862 2°53.161 310.7 11 310 11.1
2009-11-30 08:07:06 51°16.869 2°53.146 310 10.9 309 10.4
2009-11-30 08:07:11 51°16.879 2°53.128 310 10.8 310 10.2
2009-11-30 08:07:16 51°16.889 2°53.109 310.3 10.8 309 10.2
2009-11-30 08:07:21 51°16.898 2°53.091 310 10.8 310 10.3
2009-11-30 08:07:26 51°16.908 2°53.073 310.4 10.7 310 10.3
2009-11-30 08:07:31 51°16.917 2°53.054 310.3 10.8 309 10.1
2009-11-30 08:07:36 51°16.926 2°53.035 310 10.8 309 10.3
2009-11-30 08:07:41 51°16.936 2°53.017 310.1 10.8 310 10.6
2009-11-30 08:07:46 51°16.946 2°52.998 310.3 10.9 309 10.5
2009-11-30 08:07:51 51°16.956 2°52.98 310.2 10.9 309 10.6
2009-11-30 08:07:56 51°16.965 2°52.962 310 10.8 310 10.5
2009-11-30 08:08:01 51°16.974 2°52.943 310 10.8 309 10.7
2009-11-30 08:08:06 51°16.984 2°52.924 310.1 10.9 309 11
2009-11-30 08:08:11 51°16.993 2°52.906 310 10.9 310 10.9
2009-11-30 08:08:17 51°17.005 2°52.883 309.9 10.9 309 11.3
2009-11-30 08:08:21 51°17.013 2°52.868 310 10.9 310 11.1
2009-11-30 08:08:26 51°17.023 2°52.85 310 10.9 310 11.3
2009-11-30 08:08:31 51°17.033 2°52.832 310.3 10.9 310 11.1
2009-11-30 08:08:36 51°17.043 2°52.814 310.6 10.9 311 11.4
2009-11-30 08:08:41 51°17.054 2°52.796 312 10.9 312 11.5
2009-11-30 08:08:46 51°17.064 2°52.778 312.1 11 311 11.7
2009-11-30 08:08:51 51°17.074 2°52.76 312.2 10.9 313 11.9
2009-11-30 08:08:57 51°17.086 2°52.739 313 10.9 312 11.9
2009-11-30 08:09:01 51°17.094 2°52.725 313.3 10.9 313 11.8
2009-11-30 08:09:06 51°17.104 2°52.707 313.4 10.9 312 11.6
2009-11-30 08:09:11 51°17.115 2°52.689 313.3 11 313 11.4
2009-11-30 08:09:16 51°17.126 2°52.672 313.3 11 313 11.3
2009-11-30 08:09:21 51°17.136 2°52.654 313.4 10.9 313 11
2009-11-30 08:09:26 51°17.147 2°52.637 314.8 10.9 316 11.2
2009-11-30 08:09:31 51°17.158 2°52.62 315.1 11 314 11.5
2009-11-30 08:09:36 51°17.168 2°52.603 315.6 11 317 11.5
2009-11-30 08:09:41 51°17.179 2°52.586 316 10.9 316 11.6
2009-11-30 08:09:46 51°17.19 2°52.569 316.4 10.9 317 11.8
2009-11-30 08:09:51 51°17.201 2°52.553 316.1 11 315 11.5
2009-11-30 08:09:56 51°17.212 2°52.536 316.5 10.9 318 11.8
2009-11-30 08:10:01 51°17.224 2°52.521 318.1 11 318 11.9
2009-11-30 08:10:06 51°17.235 2°52.504 318.4 10.9 317 11.8
2009-11-30 08:10:11 51°17.246 2°52.488 318.2 10.9 319 12
2009-11-30 08:10:17 51°17.26 2°52.469 318.5 10.9 318 11.9
2009-11-30 08:10:20 51°17.266 2°52.459 318.9 10.9 319 11.7
2009-11-30 08:10:26 51°17.28 2°52.44 319.4 10.9 320 11.9
2009-11-30 08:10:31 51°17.292 2°52.425 319.6 10.9 319 12.2
2009-11-30 08:10:37 51°17.305 2°52.406 319.6 11 320 12
2009-11-30 08:10:41 51°17.315 2°52.394 320.4 10.9 321 12.1
2009-11-30 08:10:42 51°17.317 2°52.391 320.4 10.9 321 12.1
2009-11-30 08:10:55 51°17.348 2°52.351 321.5 10.9 321 12.4
2009-11-30 08:11:00 51°17.36 2°52.337 322.8 10.9 323 12.3
2009-11-30 08:11:05 51°17.372 2°52.322 322.8 11 321 12.3
2009-11-30 08:11:10 51°17.384 2°52.307 322.4 10.9 323 12.2
2009-11-30 08:11:15 51°17.396 2°52.293 322.4 10.9 322 12.1
2009-11-30 08:11:21 51°17.41 2°52.275 322.3 10.8 323 12.1
2009-11-30 08:11:25 51°17.42 2°52.263 322.3 10.9 322 12.5
2009-11-30 08:11:30 51°17.432 2°52.249 323 10.9 323 12.9
2009-11-30 08:11:35 51°17.444 2°52.234 323.8 10.9 324 13.2
2009-11-30 08:11:41 51°17.458 2°52.217 324.1 10.9 324 13.2
2009-11-30 08:11:45 51°17.468 2°52.206 324.5 11 324 13.3
2009-11-30 08:11:46 51°17.47 2°52.203 324.5 11 324 13.3
2009-11-30 08:11:59 51°17.503 2°52.166 324.6 10.9 325 13.4
2009-11-30 08:12:04 51°17.515 2°52.152 324.5 10.9 323 13.5
2009-11-30 08:12:09 51°17.527 2°52.138 324.5 10.9 325 13.3
2009-11-30 08:12:14 51°17.539 2°52.124 324.8 10.9 324 13.2
2009-11-30 08:12:19 51°17.552 2°52.11 324.7 10.9 324 13.2
2009-11-30 08:12:24 51°17.564 2°52.096 324.7 10.9 324 13.2
2009-11-30 08:12:29 51°17.576 2°52.081 324.3 11 324 13.3
2009-11-30 08:12:34 51°17.589 2°52.067 324.2 11 324 13.1
2009-11-30 08:12:40 51°17.603 2°52.05 323.9 10.9 324 12.8
2009-11-30 08:12:44 51°17.613 2°52.039 324.3 10.8 324 13
2009-11-30 08:12:49 51°17.625 2°52.025 324.5 10.9 324 13
2009-11-30 08:12:54 51°17.639 2°52.01 324.4 10.9 324 12.4
2009-11-30 08:12:59 51°17.651 2°51.996 324.5 10.9 325 12.3
2009-11-30 08:13:05 51°17.665 2°51.98 324.5 10.9 324 12.2
2009-11-30 08:13:10 51°17.677 2°51.966 324 10.9 324 11.9
2009-11-30 08:13:14 51°17.687 2°51.955 324.5 10.8 325 12.2
2009-11-30 08:13:19 51°17.699 2°51.94 324 10.9 323 12
2009-11-30 08:13:23 51°17.708 2°51.93 324 10.8 324 12
2009-11-30 08:13:29 51°17.723 2°51.912 324 10.8 322 12
2009-11-30 08:13:33 51°17.732 2°51.901 323.6 10.9 324 12.1
2009-11-30 08:13:39 51°17.747 2°51.883 323.4 10.9 323 12.3
2009-11-30 08:13:44 51°17.759 2°51.869 323.8 10.9 325 12.1
2009-11-30 08:13:49 51°17.771 2°51.855 324.1 10.9 324 12
2009-11-30 08:13:53 51°17.781 2°51.844 323.8 10.8 325 12.2
2009-11-30 08:13:59 51°17.796 2°51.828 324.8 10.8 325 12.3
2009-11-30 08:14:03 51°17.805 2°51.816 324.2 10.8 323 11.6
2009-11-30 08:14:09 51°17.819 2°51.8 323.8 10.7 325 11.9
2009-11-30 08:14:14 51°17.831 2°51.785 324 10.7 323 11.9
2009-11-30 08:14:19 51°17.843 2°51.771 323.8 10.8 324 12
2009-11-30 08:14:24 51°17.855 2°51.757 323.8 10.8 323 11.9
2009-11-30 08:14:29 51°17.867 2°51.743 324.1 10.9 326 12
2009-11-30 08:14:34 51°17.879 2°51.728 323.9 10.9 322 11.9
2009-11-30 08:14:39 51°17.891 2°51.714 323.7 10.9 324 12.2
2009-11-30 08:14:44 51°17.903 2°51.7 323.5 10.8 322 12
2009-11-30 08:14:49 51°17.915 2°51.686 323.1 10.7 323 11.9
2009-11-30 08:14:54 51°17.927 2°51.672 323.6 10.7 324 12.7
2009-11-30 08:14:59 51°17.939 2°51.657 323.8 10.8 323 12.1
2009-11-30 08:15:04 51°17.952 2°51.643 323.5 10.8 323 12.5
2009-11-30 08:15:09 51°17.964 2°51.629 323.7 10.9 324 12.8
2009-11-30 08:15:14 51°17.975 2°51.615 323.7 10.8 323 12.5
2009-11-30 08:15:19 51°17.987 2°51.6 323.6 10.8 324 12.1
2009-11-30 08:15:24 51°17.999 2°51.587 323.5 10.8 324 12.7
2009-11-30 08:15:29 51°18.011 2°51.573 324 10.8 324 13
2009-11-30 08:15:34 51°18.024 2°51.559 324.1 10.7 324 12.8
2009-11-30 08:15:39 51°18.036 2°51.545 323.8 10.7 323 12.9
2009-11-30 08:15:44 51°18.048 2°51.53 323.3 10.8 323 13.1
2009-11-30 08:15:50 51°18.062 2°51.513 323.3 10.9 324 12.6
2009-11-30 08:15:54 51°18.072 2°51.502 323.8 10.8 325 12.9
2009-11-30 08:15:59 51°18.084 2°51.488 324.2 10.9 324 13.6
2009-11-30 08:16:04 51°18.096 2°51.473 323.6 10.9 323 13.6
2009-11-30 08:16:09 51°18.108 2°51.459 323.9 10.8 325 13.1
2009-11-30 08:16:14 51°18.121 2°51.445 323.9 10.9 323 13.1
2009-11-30 08:16:19 51°18.133 2°51.431 323.3 10.8 323 13.6
2009-11-30 08:16:24 51°18.144 2°51.416 323.7 10.8 324 13.7
2009-11-30 08:16:29 51°18.156 2°51.401 323.3 10.9 322 14.1
2009-11-30 08:16:34 51°18.168 2°51.387 322.5 10.9 322 13.9
2009-11-30 08:16:39 51°18.18 2°51.372 322.8 10.9 322 13.8
2009-11-30 08:16:45 51°18.194 2°51.354 321.9 10.8 321 14.2
2009-11-30 08:16:49 51°18.204 2°51.343 322.8 10.9 324 14.4
2009-11-30 08:16:54 51°18.215 2°51.328 323 10.8 322 14.2
2009-11-30 08:16:59 51°18.227 2°51.314 322.5 10.9 322 14
2009-11-30 08:17:04 51°18.239 2°51.299 321.9 10.8 321 14
2009-11-30 08:17:09 51°18.251 2°51.285 322.6 10.8 324 14
2009-11-30 08:17:14 51°18.263 2°51.27 322.9 11 322 14.4
2009-11-30 08:17:20 51°18.278 2°51.253 322.9 10.9 323 14.8
2009-11-30 08:17:24 51°18.288 2°51.241 323.2 10.8 323 14.4
2009-11-30 08:17:29 51°18.3 2°51.227 323.2 10.8 322 14.5
2009-11-30 08:17:34 51°18.311 2°51.212 322.6 10.8 323 14.6
2009-11-30 08:17:39 51°18.322 2°51.198 322.1 10.4 321 15.1
2009-11-30 08:17:45 51°18.335 2°51.182 322.7 9.8 324 14.8
2009-11-30 08:17:49 51°18.343 2°51.172 323.2 9.2 323 14.9
2009-11-30 08:17:54 51°18.353 2°51.162 323.2 8.6 325 15.2
2009-11-30 08:17:59 51°18.362 2°51.151 323.3 8.1 323 15.4
2009-11-30 08:18:04 51°18.371 2°51.141 323.7 7.7 324 15.5
2009-11-30 08:18:09 51°18.379 2°51.132 323.4 7.3 324 15.3
2009-11-30 08:18:14 51°18.387 2°51.122 323.1 7.1 323 15.1
2009-11-30 08:18:19 51°18.394 2°51.113 322.8 6.8 323 15.2
2009-11-30 08:18:24 51°18.401 2°51.105 322.4 6.5 323 15.4
2009-11-30 08:18:30 51°18.409 2°51.095 322.7 6.2 323 15.3
2009-11-30 08:18:34 51°18.415 2°51.089 322.2 5.7 323 15.4
2009-11-30 08:18:39 51°18.421 2°51.082 322.6 5.4 324 15.6
2009-11-30 08:18:44 51°18.427 2°51.075 322.6 5.2 324 15.4
2009-11-30 08:18:49 51°18.432 2°51.069 322.4 5 324 15.8
2009-11-30 08:18:54 51°18.438 2°51.063 322.2 4.7 325 15.6
2009-11-30 08:18:59 51°18.443 2°51.057 322 4.5 324 15.6
2009-11-30 08:19:04 51°18.447 2°51.051 321.7 4.3 323 15.6
2009-11-30 08:19:09 51°18.451 2°51.046 320.9 4 323 15.8
2009-11-30 08:19:14 51°18.455 2°51.041 320.2 3.8 321 15.8
2009-11-30 08:19:19 51°18.459 2°51.036 319.2 3.7 321 15.6
2009-11-30 08:19:25 51°18.463 2°51.03 318.4 3.5 321 15.9
2009-11-30 08:19:29 51°18.466 2°51.027 317.4 3.3 321 15.9
2009-11-30 08:19:33 51°18.469 2°51.023 316.8 3.1 319 15.6
2009-11-30 08:19:38 51°18.472 2°51.018 315.8 3.1 321 15.7
2009-11-30 08:19:45 51°18.476 2°51.012 315.3 2.9 317 15.9
2009-11-30 08:19:49 51°18.478 2°51.009 314.4 2.8 319 15.8
2009-11-30 08:19:54 51°18.481 2°51.005 314.4 2.5 315 15.9
2009-11-30 08:19:59 51°18.484 2°51.002 313.2 2.3 318 15.8
2009-11-30 08:20:04 51°18.486 2°50.999 311.9 2 312 15.9
2009-11-30 08:20:09 51°18.488 2°50.997 309.9 1.7 318 15.8
2009-11-30 08:20:13 51°18.489 2°50.994 307.8 1.3 309 15.8
2009-11-30 08:20:17 51°18.489 2°50.993 304 1 321 15.9
2009-11-30 08:20:23 51°18.49 2°50.992 301.3 0.7 315 16.1
2009-11-30 08:20:29 51°18.491 2°50.991 297.2 0.6 324 15.9
2009-11-30 08:20:33 51°18.492 2°50.99 294.8 0.6 326 15.9
2009-11-30 08:20:37 51°18.493 2°50.99 292.5 0.6 331 15.7
2009-11-30 08:20:43 51°18.494 2°50.989 291 0.5 326 16.2
2009-11-30 08:20:49 51°18.495 2°50.989 289.9 0.5 332 16
2009-11-30 08:20:53 51°18.495 2°50.988 288.6 0.5 331 15.9
2009-11-30 08:20:59 51°18.496 2°50.988 287.4 0.5 329 16.1
2009-11-30 08:21:03 51°18.496 2°50.988 286.4 0.4 331 15.9
2009-11-30 08:21:09 51°18.497 2°50.987 285.1 0.3 347 16.1
2009-11-30 08:21:13 51°18.497 2°50.987 283.9 0.4 351 15.9
2009-11-30 08:21:19 51°18.498 2°50.987 282.7 0.3 346 16
2009-11-30 08:21:23 51°18.498 2°50.987 281.7 0.4 -999 16
2009-11-30 08:21:29 51°18.498 2°50.987 280.8 0.2 3 16.1
2009-11-30 08:21:33 51°18.499 2°50.987 279.9 0.4 353 15.9
2009-11-30 08:21:40 51°18.499 2°50.987 278.7 0.2 339 16.1
2009-11-30 08:21:43 51°18.5 2°50.987 278 0.5 2 15.9
2009-11-30 08:21:49 51°18.5 2°50.987 277.2 0.1 12 16.1
2009-11-30 08:21:54 51°18.501 2°50.987 276.3 0.4 6 16
2009-11-30 08:21:59 51°18.501 2°50.987 275.5 0.2 18 16
2009-11-30 08:22:05 51°18.501 2°50.987 274.4 0.4 9 15.8
2009-11-30 08:22:09 51°18.501 2°50.987 273.4 0.2 41 15.9
2009-11-30 08:22:13 51°18.502 2°50.987 272.1 0.3 21 16
2009-11-30 08:22:19 51°18.502 2°50.987 271.7 0.2 51 16
2009-11-30 08:22:23 51°18.502 2°50.987 270.7 0.4 28 16.1
2009-11-30 08:22:29 51°18.503 2°50.988 270 0.3 54 16
2009-11-30 08:22:33 51°18.503 2°50.988 269.2 0.3 46 16.2
2009-11-30 08:22:39 51°18.504 2°50.989 268.5 0.3 41 16
2009-11-30 08:22:43 51°18.504 2°50.989 267.9 0.4 26 16
2009-11-30 08:22:49 51°18.504 2°50.99 267.3 0.3 36 16.1
2009-11-30 08:22:53 51°18.505 2°50.99 267 0.5 24 15.7
2009-11-30 08:22:59 51°18.505 2°50.991 267 0.3 57 16.1
2009-11-30 08:23:03 51°18.506 2°50.991 267 0.5 25 15.9
2009-11-30 08:23:09 51°18.506 2°50.992 267 0.3 55 16
2009-11-30 08:23:13 51°18.507 2°50.992 266.8 0.5 28 16.1
2009-11-30 08:23:19 51°18.507 2°50.993 266.9 0.4 55 16
2009-11-30 08:23:23 51°18.508 2°50.993 266.9 0.5 30 16
2009-11-30 08:23:29 51°18.508 2°50.994 267.1 0.3 53 16.1
2009-11-30 08:23:33 51°18.509 2°50.994 267.2 0.5 28 16
2009-11-30 08:23:39 51°18.509 2°50.995 267.3 0.4 49 15.9
2009-11-30 08:23:44 51°18.51 2°50.996 267.6 0.6 37 16.1
2009-11-30 08:23:49 51°18.51 2°50.997 267.8 0.5 58 15.9
2009-11-30 08:23:53 51°18.51 2°50.997 267.8 0.6 41 16.1
2009-11-30 08:23:59 51°18.511 2°50.998 267.9 0.5 53 16.1
2009-11-30 08:24:03 51°18.511 2°50.999 267.9 0.6 41 15.9
2009-11-30 08:24:09 51°18.512 2°51 268.3 0.5 52 16.1
2009-11-30 08:24:13 51°18.512 2°51.001 268.2 0.6 39 16
2009-11-30 08:24:19 51°18.513 2°51.002 268.6 0.5 54 16.1
2009-11-30 08:24:25 51°18.514 2°51.003 269.3 0.7 37 16
2009-11-30 08:24:29 51°18.514 2°51.004 270 0.5 60 16.1
2009-11-30 08:24:33 51°18.514 2°51.005 270.7 0.6 44 16
2009-11-30 08:24:39 51°18.515 2°51.006 271.3 0.6 51 16
2009-11-30 08:24:43 51°18.515 2°51.006 271.9 0.5 59 16.2
2009-11-30 08:24:49 51°18.516 2°51.008 272.7 0.7 37 15.9
2009-11-30 08:24:53 51°18.516 2°51.009 273.3 0.5 62 16
2009-11-30 08:24:59 51°18.517 2°51.01 273.8 0.6 56 16
2009-11-30 08:25:03 51°18.517 2°51.011 274.8 0.6 52 16
2009-11-30 08:25:09 51°18.518 2°51.012 275.2 0.7 54 16.1
2009-11-30 08:25:13 51°18.519 2°51.013 275.9 0.6 54 16
2009-11-30 08:25:19 51°18.519 2°51.015 276.6 0.6 53 16.1
2009-11-30 08:25:23 51°18.519 2°51.015 277.1 0.7 55 16.3
2009-11-30 08:25:29 51°18.52 2°51.017 277.5 0.7 61 15.9
2009-11-30 08:25:33 51°18.521 2°51.018 278.8 0.7 60 16.1
2009-11-30 08:25:39 51°18.521 2°51.019 279.5 0.6 55 15.7
2009-11-30 08:25:43 51°18.522 2°51.02 280.4 0.7 54 16
2009-11-30 08:25:49 51°18.522 2°51.022 281.3 0.7 53 16
2009-11-30 08:25:53 51°18.523 2°51.023 281.9 0.7 55 16.1
2009-11-30 08:25:59 51°18.523 2°51.025 283.1 0.7 53 16.1
2009-11-30 08:26:03 51°18.524 2°51.026 283.7 0.6 56 15.9
2009-11-30 08:26:09 51°18.525 2°51.027 284.9 0.8 48 16.2
2009-11-30 08:26:13 51°18.525 2°51.028 285.3 0.7 49 15.9
2009-11-30 08:26:19 51°18.526 2°51.03 286.9 0.7 58 16.2
2009-11-30 08:26:25 51°18.526 2°51.032 287.7 0.8 52 16
2009-11-30 08:26:29 51°18.527 2°51.033 288.5 0.6 64 16.1
2009-11-30 08:26:33 51°18.528 2°51.034 289.3 0.8 52 16.4
2009-11-30 08:26:39 51°18.528 2°51.035 290.4 0.6 66 15.9
2009-11-30 08:26:45 51°18.528 2°51.037 291 0.7 61 16.3
2009-11-30 08:26:49 51°18.529 2°51.038 291.9 0.7 62 16.2
2009-11-30 08:26:53 51°18.529 2°51.039 292.5 0.7 70 16.2
2009-11-30 08:26:59 51°18.529 2°51.041 293.1 0.8 60 16.1
2009-11-30 08:27:03 51°18.53 2°51.042 293.7 0.7 62 16.3
2009-11-30 08:27:09 51°18.531 2°51.044 294 0.7 70 16.4
2009-11-30 08:27:13 51°18.531 2°51.045 295.1 0.8 61 15.8
2009-11-30 08:27:17 51°18.531 2°51.046 295.6 0.7 67 16.1
2009-11-30 08:27:24 51°18.532 2°51.048 296.4 0.7 64 16
2009-11-30 08:27:29 51°18.533 2°51.049 296.9 0.6 70 16.2
2009-11-30 08:27:33 51°18.533 2°51.051 297.7 0.9 63 16.2
2009-11-30 08:27:39 51°18.533 2°51.052 298.4 0.7 69 16
2009-11-30 08:27:43 51°18.534 2°51.053 298.7 0.7 64 16.1
2009-11-30 08:27:49 51°18.534 2°51.055 299.7 0.7 60 16.1
2009-11-30 08:27:53 51°18.535 2°51.056 299.9 0.7 65 16.1
2009-11-30 08:27:59 51°18.535 2°51.058 300.6 0.7 64 16.3
2009-11-30 08:28:04 51°18.536 2°51.059 301.4 0.7 70 16.1
2009-11-30 08:28:09 51°18.536 2°51.061 302 0.8 61 16.4
2009-11-30 08:28:14 51°18.537 2°51.062 302.5 0.7 67 16.1
2009-11-30 08:28:20 51°18.537 2°51.064 302.7 0.7 64 16.3
2009-11-30 08:28:24 51°18.538 2°51.065 303.3 0.8 64 16.1
2009-11-30 08:28:29 51°18.538 2°51.066 303.5 0.8 53 16.1
2009-11-30 08:28:33 51°18.539 2°51.067 304 0.7 44 16.3
2009-11-30 08:28:39 51°18.54 2°51.068 304.9 0.8 24 16
2009-11-30 08:28:45 51°18.541 2°51.068 305.7 0.9 352 16.2
2009-11-30 08:28:49 51°18.543 2°51.067 308.3 1.3 339 16
2009-11-30 08:28:54 51°18.546 2°51.065 311 1.9 337 15.7
2009-11-30 08:28:59 51°18.548 2°51.063 314.5 2.2 337 16
2009-11-30 08:29:05 51°18.552 2°51.06 318.7 2.6 335 16.3
2009-11-30 08:29:10 51°18.556 2°51.057 323.8 3 339 16.1
2009-11-30 08:29:14 51°18.559 2°51.055 328.7 3.3 343 16.5
2009-11-30 08:29:19 51°18.564 2°51.053 333.6 3.6 343 16.3
2009-11-30 08:29:24 51°18.57 2°51.052 338.4 3.9 350 16.1
2009-11-30 08:29:29 51°18.575 2°51.051 343.7 4.1 356 16.4
2009-11-30 08:29:34 51°18.581 2°51.051 349.6 4.3 359 16.1
2009-11-30 08:29:39 51°18.587 2°51.052 355.8 4.5 8 16.6
2009-11-30 08:29:44 51°18.594 2°51.054 2.5 4.7 12 16.4
2009-11-30 08:29:50 51°18.601 2°51.059 9.1 4.7 20 16.4
2009-11-30 08:29:54 51°18.606 2°51.063 16.7 4.9 26 16.2
2009-11-30 08:29:59 51°18.612 2°51.069 24.3 5 36 16.4
2009-11-30 08:30:05 51°18.618 2°51.078 32.4 5.1 41 16.4
2009-11-30 08:30:09 51°18.622 2°51.085 40.2 5.1 50 16.4
2009-11-30 08:30:13 51°18.625 2°51.093 48.2 5.2 55 16.4
2009-11-30 08:30:19 51°18.63 2°51.105 55.2 5.5 60 16.4
2009-11-30 08:30:24 51°18.634 2°51.117 58.9 5.8 61 16.5
2009-11-30 08:30:29 51°18.638 2°51.129 60.8 6.3 62 16.3
2009-11-30 08:30:34 51°18.643 2°51.142 61.3 6.6 62 16.4
2009-11-30 08:30:39 51°18.647 2°51.156 60.8 7 63 16.3
2009-11-30 08:30:43 51°18.652 2°51.167 59.5 7.4 59 16.3
2009-11-30 08:30:48 51°18.657 2°51.183 59.6 8 64 16.6
2009-11-30 08:30:53 51°18.663 2°51.198 58.1 8.2 55 16.3
2009-11-30 08:30:59 51°18.67 2°51.218 57.7 8.6 62 16.1
2009-11-30 08:31:04 51°18.677 2°51.234 57.4 8.8 56 16.5
2009-11-30 08:31:09 51°18.684 2°51.251 55.5 9.1 58 16.3
2009-11-30 08:31:13 51°18.689 2°51.266 56.7 9.7 57 16.3
2009-11-30 08:31:19 51°18.699 2°51.287 55.2 10.1 55 16.5
2009-11-30 08:31:25 51°18.709 2°51.309 53.2 10.3 54 16.1
2009-11-30 08:31:29 51°18.716 2°51.325 53.2 10.6 54 16.5
2009-11-30 08:31:33 51°18.724 2°51.338 49.3 10.7 50 16.3
2009-11-30 08:31:39 51°18.733 2°51.363 52.5 11 56 16.4
2009-11-30 08:31:43 51°18.742 2°51.376 49.8 11 46 16.4
2009-11-30 08:31:49 51°18.753 2°51.4 49.6 11.1 54 16.5
2009-11-30 08:31:53 51°18.762 2°51.414 49.4 11.1 47 16.4
2009-11-30 08:31:59 51°18.774 2°51.438 48.3 11.3 52 16.4
2009-11-30 08:32:03 51°18.783 2°51.452 48 11.3 46 16.4
2009-11-30 08:32:09 51°18.796 2°51.474 46.4 11.3 48 16.4
2009-11-30 08:32:13 51°18.804 2°51.489 46.5 11.4 49 16.5
2009-11-30 08:32:19 51°18.817 2°51.511 45.8 11.4 45 16.5
2009-11-30 08:32:23 51°18.825 2°51.527 47.3 11.4 52 16.5
2009-11-30 08:32:29 51°18.837 2°51.551 50.2 11.4 53 16.7
2009-11-30 08:32:33 51°18.845 2°51.567 50.9 11.4 52 16.4
2009-11-30 08:32:39 51°18.855 2°51.593 53.1 11.4 57 16.4
2009-11-30 08:32:45 51°18.866 2°51.617 54.2 11.3 54 16.5
2009-11-30 08:32:49 51°18.873 2°51.634 55.2 11.4 58 16.4
2009-11-30 08:32:53 51°18.879 2°51.651 56 11.5 58 16.5
2009-11-30 08:32:59 51°18.89 2°51.676 56.1 11.4 56 16.3
2009-11-30 08:33:05 51°18.901 2°51.703 57.3 11.3 60 16.4
2009-11-30 08:33:09 51°18.908 2°51.72 57.5 11.4 58 16.5
2009-11-30 08:33:13 51°18.915 2°51.738 57.7 11.4 59 16.2
2009-11-30 08:33:18 51°18.923 2°51.76 58.7 11.4 60 16.2
2009-11-30 08:33:24 51°18.932 2°51.786 58.8 11.6 60 16.6
2009-11-30 08:33:29 51°18.939 2°51.809 59.7 11.6 63 16.6
2009-11-30 08:33:34 51°18.947 2°51.83 59.8 11.4 59 16.2
2009-11-30 08:33:39 51°18.954 2°51.853 60.5 11.7 62 16.3
2009-11-30 08:33:44 51°18.961 2°51.876 60.3 11.6 61 16.3
2009-11-30 08:33:50 51°18.969 2°51.903 60.9 11.6 63 16.4
2009-11-30 08:33:54 51°18.976 2°51.921 60.3 11.7 60 16.5
2009-11-30 08:33:59 51°18.984 2°51.943 59.4 11.6 63 16.4
2009-11-30 08:34:04 51°18.99 2°51.966 62.2 11.4 64 16.2
2009-11-30 08:34:09 51°18.997 2°51.989 63.1 11.6 65 16.6
2009-11-30 08:34:13 51°19.001 2°52.008 65.2 11.5 69 16.6
2009-11-30 08:34:19 51°19.009 2°52.036 65.9 11.3 66 16.3
2009-11-30 08:34:23 51°19.013 2°52.055 66.9 11.5 70 16.4
2009-11-30 08:34:29 51°19.02 2°52.084 67.7 11.5 68 16.4
2009-11-30 08:34:33 51°19.025 2°52.102 67.9 11.3 70 16.1
2009-11-30 08:34:39 51°19.03 2°52.131 70 11.5 71 16.3
2009-11-30 08:34:43 51°19.036 2°52.15 68.8 11.6 67 16.2
2009-11-30 08:34:48 51°19.04 2°52.175 70.3 11.4 75 16.2
2009-11-30 08:34:53 51°19.045 2°52.198 71.1 11.3 68 16.2
2009-11-30 08:34:58 51°19.05 2°52.222 71 11.5 75 15.9
2009-11-30 08:35:03 51°19.054 2°52.247 72.7 11.6 73 16.1
2009-11-30 08:35:09 51°19.061 2°52.275 70.7 11.3 70 16.1
2009-11-30 08:35:13 51°19.063 2°52.295 72.2 11.4 77 16
2009-11-30 08:35:18 51°19.069 2°52.319 71.8 11.7 68 16
2009-11-30 08:35:24 51°19.074 2°52.349 70.8 11.5 75 16.2
2009-11-30 08:35:29 51°19.079 2°52.372 71.5 11.4 71 15.8
2009-11-30 08:35:33 51°19.083 2°52.392 72.3 11.6 74 15.9
2009-11-30 08:35:38 51°19.088 2°52.416 71.6 11.6 71 15.8
2009-11-30 08:35:44 51°19.093 2°52.445 71.4 11.5 74 15.7
2009-11-30 08:35:48 51°19.097 2°52.465 71.6 11.6 71 15.6
2009-11-30 08:35:53 51°19.102 2°52.49 72.2 11.7 75 16
2009-11-30 08:35:58 51°19.107 2°52.514 72.4 11.5 72 15.6
2009-11-30 08:36:03 51°19.111 2°52.539 72.3 11.5 74 15.6
2009-11-30 08:36:08 51°19.116 2°52.563 71.9 11.6 71 15.5
2009-11-30 08:36:13 51°19.121 2°52.588 71.2 11.8 73 16
2009-11-30 08:36:18 51°19.126 2°52.612 70.5 11.5 69 15.4
2009-11-30 08:36:23 51°19.131 2°52.636 70.5 11.5 74 15.6
2009-11-30 08:36:28 51°19.136 2°52.661 71.4 11.8 72 15.6
2009-11-30 08:36:33 51°19.141 2°52.685 70.4 11.5 70 15.4
2009-11-30 08:36:38 51°19.146 2°52.709 71.3 11.4 74 15.5
2009-11-30 08:36:43 51°19.151 2°52.733 71.2 11.6 70 15.3
2009-11-30 08:36:49 51°19.157 2°52.763 71 11.7 74 15.4
2009-11-30 08:36:53 51°19.161 2°52.783 72.2 11.6 72 15.1
2009-11-30 08:36:59 51°19.167 2°52.812 71.8 11.7 73 15.4
2009-11-30 08:37:03 51°19.171 2°52.832 71.4 11.7 73 15.2
2009-11-30 08:37:08 51°19.175 2°52.857 72.8 11.8 74 15.4
2009-11-30 08:37:13 51°19.18 2°52.882 71.4 11.7 70 15.1
2009-11-30 08:37:19 51°19.186 2°52.911 71.2 11.7 74 15.2
2009-11-30 08:37:23 51°19.19 2°52.931 72 11.7 72 15.1
2009-11-30 08:37:28 51°19.195 2°52.956 72 11.7 73 15.1
2009-11-30 08:37:33 51°19.2 2°52.981 71.8 11.7 71 15.1
2009-11-30 08:37:39 51°19.205 2°53.01 71.5 11.7 73 15.2
2009-11-30 08:37:44 51°19.21 2°53.035 71.7 11.7 73 15.1
2009-11-30 08:37:49 51°19.215 2°53.06 72 11.7 72 15
2009-11-30 08:37:53 51°19.219 2°53.079 71.8 11.7 73 15.1
2009-11-30 08:37:59 51°19.225 2°53.109 72 11.8 73 15.1
2009-11-30 08:38:05 51°19.231 2°53.139 71.6 11.6 71 14.9
2009-11-30 08:38:09 51°19.234 2°53.159 72.1 11.8 75 15.1
2009-11-30 08:38:13 51°19.239 2°53.178 71.2 11.7 69 14.8
2009-11-30 08:38:18 51°19.243 2°53.203 72 11.6 76 14.9
2009-11-30 08:38:23 51°19.248 2°53.227 72.7 11.6 70 14.8
2009-11-30 08:38:29 51°19.254 2°53.257 71.8 11.8 73 14.8
2009-11-30 08:38:33 51°19.258 2°53.277 70.5 11.6 70 15
2009-11-30 08:38:39 51°19.265 2°53.305 69.9 11.5 72 14.7
2009-11-30 08:38:43 51°19.269 2°53.325 70.8 11.7 72 14.8
2009-11-30 08:38:49 51°19.276 2°53.354 69.8 11.8 67 14.8
2009-11-30 08:38:53 51°19.28 2°53.374 69.5 11.5 73 14.7
2009-11-30 08:38:59 51°19.286 2°53.402 70.4 11.6 69 14.6
2009-11-30 08:39:03 51°19.291 2°53.422 69 11.8 70 15
2009-11-30 08:39:09 51°19.297 2°53.45 68.2 11.5 69 14.7
2009-11-30 08:39:13 51°19.301 2°53.47 69.8 11.5 71 14.7
2009-11-30 08:39:19 51°19.309 2°53.498 68.2 11.6 68 14.9
2009-11-30 08:39:23 51°19.313 2°53.518 68.5 11.7 72 14.8
2009-11-30 08:39:29 51°19.319 2°53.547 69.7 11.6 68 14.7
2009-11-30 08:39:33 51°19.323 2°53.566 69.3 11.6 72 14.8
2009-11-30 08:39:39 51°19.33 2°53.595 70.3 11.6 70 14.7
2009-11-30 08:39:45 51°19.336 2°53.625 69.7 11.6 70 14.7
2009-11-30 08:39:49 51°19.341 2°53.644 69.3 11.6 70 14.6
2009-11-30 08:39:53 51°19.345 2°53.663 69.6 11.6 71 14.7
2009-11-30 08:39:59 51°19.352 2°53.692 69.7 11.8 69 14.6
2009-11-30 08:40:05 51°19.358 2°53.722 69.7 11.7 72 14.8
2009-11-30 08:40:09 51°19.363 2°53.741 70.5 11.6 71 14.5
2009-11-30 08:40:13 51°19.366 2°53.761 71.8 11.7 73 14.8
2009-11-30 08:40:17 51°19.371 2°53.78 70.5 11.7 70 14.5
2009-11-30 08:40:25 51°19.378 2°53.82 71.3 11.7 74 14.8
2009-11-30 08:40:29 51°19.384 2°53.839 69.9 11.6 67 14.5
2009-11-30 08:40:33 51°19.386 2°53.859 71 11.7 76 14.7
2009-11-30 08:40:39 51°19.394 2°53.888 70.9 11.6 65 14.4
2009-11-30 08:40:43 51°19.397 2°53.908 70.7 11.5 78 14.7
2009-11-30 08:40:49 51°19.404 2°53.936 71.9 11.5 66 14.5
2009-11-30 08:40:54 51°19.408 2°53.961 70.5 11.7 74 14.6
2009-11-30 08:40:59 51°19.413 2°53.985 71.2 11.5 71 14.7
2009-11-30 08:41:03 51°19.418 2°54.004 70.7 11.5 71 14.5
2009-11-30 08:41:08 51°19.422 2°54.029 70.7 11.7 72 14.7
2009-11-30 08:41:13 51°19.428 2°54.053 69.8 11.6 69 15
2009-11-30 08:41:19 51°19.434 2°54.082 69.4 11.5 73 14.5
2009-11-30 08:41:23 51°19.438 2°54.101 70.2 11.7 69 14.4
2009-11-30 08:41:29 51°19.445 2°54.13 69.4 11.7 70 14.6
2009-11-30 08:41:33 51°19.449 2°54.149 69.3 11.5 72 14.4
2009-11-30 08:41:39 51°19.455 2°54.179 71.6 11.6 71 14.4
2009-11-30 08:41:43 51°19.46 2°54.198 70.5 11.7 70 14.5
2009-11-30 08:41:49 51°19.466 2°54.227 70.1 11.6 72 14.7
2009-11-30 08:41:54 51°19.471 2°54.251 70.3 11.5 71 14.4
2009-11-30 08:41:59 51°19.476 2°54.276 72 11.7 73 14.4
2009-11-30 08:42:04 51°19.482 2°54.301 71.2 11.7 70 14.8
2009-11-30 08:42:10 51°19.487 2°54.33 70.7 11.7 72 14.3
2009-11-30 08:42:13 51°19.49 2°54.346 72.1 11.8 75 14.6
2009-11-30 08:42:19 51°19.497 2°54.375 71.2 11.7 70 14.7
2009-11-30 08:42:23 51°19.5 2°54.394 70.3 11.6 72 14.6
2009-11-30 08:42:29 51°19.507 2°54.425 71.2 11.9 72 14.7
2009-11-30 08:42:33 51°19.511 2°54.444 71.3 11.8 70 14.6
2009-11-30 08:42:39 51°19.517 2°54.474 70.9 11.6 72 14.7
2009-11-30 08:42:43 51°19.521 2°54.493 70.6 11.8 71 14.5
2009-11-30 08:42:48 51°19.527 2°54.519 71.2 11.9 72 14.8
2009-11-30 08:42:53 51°19.532 2°54.543 70.2 11.7 69 14.6
2009-11-30 08:42:59 51°19.539 2°54.572 69.7 11.7 70 14.5
2009-11-30 08:43:03 51°19.544 2°54.591 69 11.9 70 14.6
2009-11-30 08:43:08 51°19.55 2°54.616 69.3 11.9 69 14.7
2009-11-30 08:43:13 51°19.555 2°54.641 69 11.7 70 14.5
2009-11-30 08:43:19 51°19.562 2°54.67 69 11.7 69 14.6
2009-11-30 08:43:23 51°19.567 2°54.69 68.9 11.9 70 14.7
2009-11-30 08:43:28 51°19.572 2°54.714 69.6 11.7 70 14.5
2009-11-30 08:43:33 51°19.577 2°54.738 70.5 11.7 73 14.6
2009-11-30 08:43:39 51°19.584 2°54.768 71 11.9 69 14.6
2009-11-30 08:43:43 51°19.588 2°54.788 70.6 11.9 73 14.7
2009-11-30 08:43:49 51°19.594 2°54.818 72.1 11.8 71 14.7
2009-11-30 08:43:53 51°19.599 2°54.837 70 11.7 68 14.4
2009-11-30 08:43:58 51°19.603 2°54.862 71 11.9 74 14.5
2009-11-30 08:44:04 51°19.611 2°54.892 70.8 12 67 14.7
2009-11-30 08:44:08 51°19.615 2°54.911 69.1 11.7 72 14.6
2009-11-30 08:44:13 51°19.619 2°54.936 70.9 11.6 73 14.4
2009-11-30 08:44:19 51°19.626 2°54.966 70.5 12 70 14.8
2009-11-30 08:44:24 51°19.632 2°54.991 69.8 11.8 72 14.6
2009-11-30 08:44:28 51°19.635 2°55.01 71.4 11.8 71 14.4
2009-11-30 08:44:33 51°19.641 2°55.036 71.4 12 71 14.7
2009-11-30 08:44:37 51°19.645 2°55.056 70.5 11.8 70 14.6
2009-11-30 08:44:43 51°19.651 2°55.085 71.2 11.7 73 14.4
2009-11-30 08:44:49 51°19.658 2°55.115 71.5 11.9 71 14.5
2009-11-30 08:44:53 51°19.663 2°55.134 71 11.9 69 14.6
2009-11-30 08:44:59 51°19.669 2°55.164 70.4 11.7 72 14.3
2009-11-30 08:45:04 51°19.674 2°55.19 72.3 12 74 14.6
2009-11-30 08:45:09 51°19.68 2°55.214 70.6 12 67 14.5
2009-11-30 08:45:13 51°19.684 2°55.234 70.7 11.7 73 14.6
2009-11-30 08:45:19 51°19.691 2°55.263 71.2 11.9 69 14.4
2009-11-30 08:45:23 51°19.695 2°55.284 69.5 12.1 70 14.6
2009-11-30 08:45:29 51°19.701 2°55.313 69.9 11.7 72 14.7
2009-11-30 08:45:33 51°19.706 2°55.333 70.5 11.8 69 14.4
2009-11-30 08:45:39 51°19.713 2°55.362 68.9 12 68 14.6
2009-11-30 08:45:43 51°19.717 2°55.382 69 11.8 71 14.6
2009-11-30 08:45:48 51°19.723 2°55.406 70.2 11.8 71 14.5
2009-11-30 08:45:53 51°19.728 2°55.431 70 12 70 14.6
2009-11-30 08:45:58 51°19.734 2°55.456 69.7 11.9 71 14.4
2009-11-30 08:46:03 51°19.739 2°55.481 71.1 11.8 70 14.5
2009-11-30 08:46:08 51°19.746 2°55.505 69.4 11.9 70 14.5
2009-11-30 08:46:13 51°19.749 2°55.531 72.2 12 75 14.5
2009-11-30 08:46:19 51°19.757 2°55.56 70.4 11.8 68 14.5
2009-11-30 08:46:24 51°19.762 2°55.585 69.9 11.7 72 14.5
2009-11-30 08:46:28 51°19.767 2°55.604 69.1 11.7 67 14.4
2009-11-30 08:46:33 51°19.772 2°55.629 69.5 11.9 72 14.6
2009-11-30 08:46:39 51°19.78 2°55.658 69.1 11.9 67 14.5
2009-11-30 08:46:44 51°19.785 2°55.683 68.7 11.8 71 14.4
2009-11-30 08:46:48 51°19.789 2°55.703 69.6 11.8 70 14.3
2009-11-30 08:46:53 51°19.796 2°55.727 69.1 12 68 14.4
2009-11-30 08:46:58 51°19.801 2°55.752 68.4 11.9 69 14.4
2009-11-30 08:47:03 51°19.806 2°55.777 69.7 11.9 73 14.5
2009-11-30 08:47:08 51°19.813 2°55.801 69.3 11.9 66 14.4
2009-11-30 08:47:13 51°19.819 2°55.826 68.9 11.9 71 14.3
2009-11-30 08:47:18 51°19.824 2°55.851 70.8 11.9 69 14.3
2009-11-30 08:47:23 51°19.83 2°55.875 69.3 12 69 14.5
2009-11-30 08:47:29 51°19.836 2°55.906 70.2 11.8 72 14.5
2009-11-30 08:47:33 51°19.841 2°55.925 70.6 11.8 69 14.3
2009-11-30 08:47:38 51°19.846 2°55.95 71.1 12.1 73 14.6
2009-11-30 08:47:43 51°19.852 2°55.975 70.8 12 68 14.4
2009-11-30 08:47:48 51°19.857 2°56.001 71.5 11.9 75 14.3
2009-11-30 08:47:53 51°19.862 2°56.026 71.9 12.1 69 14.3
2009-11-30 08:47:58 51°19.868 2°56.051 70.8 12.1 70 14.5
2009-11-30 08:48:03 51°19.873 2°56.076 70.9 11.9 74 14.4
2009-11-30 08:48:08 51°19.878 2°56.102 72.8 12 70 14.3
2009-11-30 08:48:13 51°19.884 2°56.126 70.8 12 71 14.2
2009-11-30 08:48:18 51°19.889 2°56.152 70.6 11.9 71 14.4
2009-11-30 08:48:23 51°19.895 2°56.176 70.7 11.9 71 14.3
2009-11-30 08:48:28 51°19.899 2°56.202 72.2 12.1 73 14.5
2009-11-30 08:48:33 51°19.906 2°56.227 70.5 12 67 14.3
2009-11-30 08:48:37 51°19.91 2°56.247 71.1 12 75 14.3